sensor_id;sensor_type;location;lat;lon;timestamp;P1;durP1;ratioP1;P2;durP2;ratioP2
68140;SDS011;54941;52.220;104.306;2024-01-06T00:01:27;7.97;;;3.28;;
68140;SDS011;54941;52.220;104.306;2024-01-06T00:03:53;5.43;;;2.55;;
68140;SDS011;54941;52.220;104.306;2024-01-06T00:06:20;5.60;;;2.05;;
68140;SDS011;54941;52.220;104.306;2024-01-06T00:08:46;6.32;;;2.58;;
68140;SDS011;54941;52.220;104.306;2024-01-06T00:11:13;4.68;;;2.20;;
68140;SDS011;54941;52.220;104.306;2024-01-06T00:13:39;6.25;;;2.55;;
68140;SDS011;54941;52.220;104.306;2024-01-06T00:16:05;6.60;;;2.40;;
68140;SDS011;54941;52.220;104.306;2024-01-06T00:18:33;6.63;;;3.33;;
68140;SDS011;54941;52.220;104.306;2024-01-06T00:21:00;10.70;;;4.20;;
68140;SDS011;54941;52.220;104.306;2024-01-06T00:23:26;7.60;;;3.88;;
68140;SDS011;54941;52.220;104.306;2024-01-06T00:25:52;7.63;;;2.45;;
68140;SDS011;54941;52.220;104.306;2024-01-06T00:28:18;6.53;;;2.95;;
68140;SDS011;54941;52.220;104.306;2024-01-06T00:30:45;8.30;;;2.70;;
68140;SDS011;54941;52.220;104.306;2024-01-06T00:33:11;7.72;;;3.00;;
68140;SDS011;54941;52.220;104.306;2024-01-06T00:35:39;9.00;;;2.00;;
68140;SDS011;54941;52.220;104.306;2024-01-06T00:38:06;5.63;;;2.22;;
68140;SDS011;54941;52.220;104.306;2024-01-06T00:40:32;3.67;;;1.48;;
68140;SDS011;54941;52.220;104.306;2024-01-06T00:42:58;5.57;;;2.15;;
68140;SDS011;54941;52.220;104.306;2024-01-06T00:45:24;4.75;;;2.15;;
68140;SDS011;54941;52.220;104.306;2024-01-06T00:47:51;4.60;;;1.63;;
68140;SDS011;54941;52.220;104.306;2024-01-06T00:50:17;4.75;;;1.85;;
68140;SDS011;54941;52.220;104.306;2024-01-06T00:52:45;5.00;;;2.05;;
68140;SDS011;54941;52.220;104.306;2024-01-06T00:55:12;7.25;;;2.80;;
68140;SDS011;54941;52.220;104.306;2024-01-06T00:57:38;5.95;;;2.22;;
68140;SDS011;54941;52.220;104.306;2024-01-06T01:00:05;5.10;;;2.13;;
68140;SDS011;54941;52.220;104.306;2024-01-06T01:02:32;5.07;;;2.30;;
68140;SDS011;54941;52.220;104.306;2024-01-06T01:04:58;4.88;;;2.65;;
68140;SDS011;54941;52.220;104.306;2024-01-06T01:07:24;6.07;;;2.50;;
68140;SDS011;54941;52.220;104.306;2024-01-06T01:09:52;6.25;;;1.98;;
68140;SDS011;54941;52.220;104.306;2024-01-06T01:12:18;8.90;;;2.28;;
68140;SDS011;54941;52.220;104.306;2024-01-06T01:14:44;8.60;;;2.65;;
68140;SDS011;54941;52.220;104.306;2024-01-06T01:17:11;6.75;;;2.30;;
68140;SDS011;54941;52.220;104.306;2024-01-06T01:19:37;6.35;;;2.50;;
68140;SDS011;54941;52.220;104.306;2024-01-06T01:22:03;4.63;;;1.58;;
68140;SDS011;54941;52.220;104.306;2024-01-06T01:24:30;4.60;;;2.33;;
68140;SDS011;54941;52.220;104.306;2024-01-06T01:26:57;5.65;;;1.80;;
68140;SDS011;54941;52.220;104.306;2024-01-06T01:29:24;4.68;;;2.05;;
68140;SDS011;54941;52.220;104.306;2024-01-06T01:31:50;5.55;;;2.97;;
68140;SDS011;54941;52.220;104.306;2024-01-06T01:34:16;8.75;;;2.67;;
68140;SDS011;54941;52.220;104.306;2024-01-06T01:36:42;7.53;;;2.85;;
68140;SDS011;54941;52.220;104.306;2024-01-06T01:39:09;5.72;;;3.90;;
68140;SDS011;54941;52.220;104.306;2024-01-06T01:41:35;7.82;;;2.55;;
68140;SDS011;54941;52.220;104.306;2024-01-06T01:44:03;8.52;;;2.60;;
68140;SDS011;54941;52.220;104.306;2024-01-06T01:46:29;7.18;;;3.72;;
68140;SDS011;54941;52.220;104.306;2024-01-06T01:48:56;7.60;;;2.70;;
68140;SDS011;54941;52.220;104.306;2024-01-06T01:51:26;6.85;;;2.90;;
68140;SDS011;54941;52.220;104.306;2024-01-06T01:53:54;7.72;;;2.85;;
68140;SDS011;54941;52.220;104.306;2024-01-06T01:56:21;5.80;;;2.35;;
68140;SDS011;54941;52.220;104.306;2024-01-06T01:58:48;5.40;;;2.15;;
68140;SDS011;54941;52.220;104.306;2024-01-06T02:01:16;4.72;;;1.70;;
68140;SDS011;54941;52.220;104.306;2024-01-06T02:03:43;5.07;;;2.22;;
68140;SDS011;54941;52.220;104.306;2024-01-06T02:06:10;5.75;;;2.50;;
68140;SDS011;54941;52.220;104.306;2024-01-06T02:08:36;6.78;;;2.53;;
68140;SDS011;54941;52.220;104.306;2024-01-06T02:11:05;6.47;;;2.60;;
68140;SDS011;54941;52.220;104.306;2024-01-06T02:13:35;4.78;;;2.67;;
68140;SDS011;54941;52.220;104.306;2024-01-06T02:16:04;4.80;;;2.15;;
68140;SDS011;54941;52.220;104.306;2024-01-06T02:18:33;4.97;;;2.10;;
68140;SDS011;54941;52.220;104.306;2024-01-06T02:21:00;3.95;;;1.77;;
68140;SDS011;54941;52.220;104.306;2024-01-06T02:23:29;6.78;;;2.60;;
68140;SDS011;54941;52.220;104.306;2024-01-06T02:25:56;7.63;;;2.50;;
68140;SDS011;54941;52.220;104.306;2024-01-06T02:28:22;6.75;;;2.70;;
68140;SDS011;54941;52.220;104.306;2024-01-06T02:30:49;7.47;;;2.90;;
68140;SDS011;54941;52.220;104.306;2024-01-06T02:33:16;21.83;;;3.53;;
68140;SDS011;54941;52.220;104.306;2024-01-06T02:35:45;4.78;;;2.65;;
68140;SDS011;54941;52.220;104.306;2024-01-06T02:38:12;5.53;;;2.08;;
68140;SDS011;54941;52.220;104.306;2024-01-06T02:40:39;4.88;;;2.28;;
68140;SDS011;54941;52.220;104.306;2024-01-06T02:43:06;4.07;;;2.10;;
68140;SDS011;54941;52.220;104.306;2024-01-06T02:45:32;8.90;;;2.25;;
68140;SDS011;54941;52.220;104.306;2024-01-06T02:47:58;3.55;;;2.03;;
68140;SDS011;54941;52.220;104.306;2024-01-06T02:50:25;3.30;;;1.38;;
68140;SDS011;54941;52.220;104.306;2024-01-06T02:52:51;6.43;;;2.00;;
68140;SDS011;54941;52.220;104.306;2024-01-06T02:55:17;5.53;;;2.40;;
68140;SDS011;54941;52.220;104.306;2024-01-06T02:57:46;3.17;;;1.60;;
68140;SDS011;54941;52.220;104.306;2024-01-06T03:00:12;5.13;;;1.63;;
68140;SDS011;54941;52.220;104.306;2024-01-06T03:02:39;5.30;;;2.10;;
68140;SDS011;54941;52.220;104.306;2024-01-06T03:05:05;3.70;;;1.45;;
68140;SDS011;54941;52.220;104.306;2024-01-06T03:07:32;4.90;;;1.80;;
68140;SDS011;54941;52.220;104.306;2024-01-06T03:09:58;3.40;;;1.85;;
68140;SDS011;54941;52.220;104.306;2024-01-06T03:12:24;3.83;;;1.70;;
68140;SDS011;54941;52.220;104.306;2024-01-06T03:14:52;3.42;;;1.30;;
68140;SDS011;54941;52.220;104.306;2024-01-06T03:17:19;2.42;;;1.15;;
68140;SDS011;54941;52.220;104.306;2024-01-06T03:19:45;3.50;;;1.20;;
68140;SDS011;54941;52.220;104.306;2024-01-06T03:22:11;3.50;;;1.70;;
68140;SDS011;54941;52.220;104.306;2024-01-06T03:24:37;3.88;;;1.45;;
68140;SDS011;54941;52.220;104.306;2024-01-06T03:27:05;4.63;;;2.58;;
68140;SDS011;54941;52.220;104.306;2024-01-06T03:29:31;3.10;;;1.15;;
68140;SDS011;54941;52.220;104.306;2024-01-06T03:31:59;3.72;;;1.25;;
68140;SDS011;54941;52.220;104.306;2024-01-06T03:34:26;4.55;;;1.60;;
68140;SDS011;54941;52.220;104.306;2024-01-06T03:36:52;3.30;;;1.50;;
68140;SDS011;54941;52.220;104.306;2024-01-06T03:39:18;5.18;;;1.67;;
68140;SDS011;54941;52.220;104.306;2024-01-06T03:41:44;3.20;;;1.58;;
68140;SDS011;54941;52.220;104.306;2024-01-06T03:44:11;2.83;;;1.10;;
68140;SDS011;54941;52.220;104.306;2024-01-06T03:46:37;3.70;;;1.13;;
68140;SDS011;54941;52.220;104.306;2024-01-06T03:49:05;2.80;;;1.10;;
68140;SDS011;54941;52.220;104.306;2024-01-06T03:51:31;3.85;;;1.02;;
68140;SDS011;54941;52.220;104.306;2024-01-06T03:53:58;3.03;;;1.02;;
68140;SDS011;54941;52.220;104.306;2024-01-06T03:56:27;3.03;;;1.05;;
68140;SDS011;54941;52.220;104.306;2024-01-06T03:58:55;3.08;;;1.10;;
68140;SDS011;54941;52.220;104.306;2024-01-06T04:01:21;3.13;;;2.00;;
68140;SDS011;54941;52.220;104.306;2024-01-06T04:03:47;3.08;;;1.33;;
68140;SDS011;54941;52.220;104.306;2024-01-06T04:06:15;2.85;;;1.27;;
68140;SDS011;54941;52.220;104.306;2024-01-06T04:08:42;3.65;;;1.58;;
68140;SDS011;54941;52.220;104.306;2024-01-06T04:11:08;3.10;;;1.17;;
68140;SDS011;54941;52.220;104.306;2024-01-06T04:13:34;2.88;;;1.00;;
68140;SDS011;54941;52.220;104.306;2024-01-06T04:16:00;4.25;;;1.92;;
68140;SDS011;54941;52.220;104.306;2024-01-06T04:18:27;4.60;;;2.17;;
68140;SDS011;54941;52.220;104.306;2024-01-06T04:20:53;4.80;;;2.28;;
68140;SDS011;54941;52.220;104.306;2024-01-06T04:23:21;4.63;;;2.17;;
68140;SDS011;54941;52.220;104.306;2024-01-06T04:25:47;4.20;;;1.77;;
68140;SDS011;54941;52.220;104.306;2024-01-06T04:28:13;4.80;;;2.22;;
68140;SDS011;54941;52.220;104.306;2024-01-06T04:30:40;4.45;;;1.48;;
68140;SDS011;54941;52.220;104.306;2024-01-06T04:33:06;6.20;;;2.25;;
68140;SDS011;54941;52.220;104.306;2024-01-06T04:35:32;3.65;;;1.90;;
68140;SDS011;54941;52.220;104.306;2024-01-06T04:37:58;4.05;;;1.50;;
68140;SDS011;54941;52.220;104.306;2024-01-06T04:40:26;3.63;;;1.65;;
68140;SDS011;54941;52.220;104.306;2024-01-06T04:42:52;4.03;;;1.40;;
68140;SDS011;54941;52.220;104.306;2024-01-06T04:45:19;4.15;;;1.90;;
68140;SDS011;54941;52.220;104.306;2024-01-06T04:47:45;3.05;;;1.30;;
68140;SDS011;54941;52.220;104.306;2024-01-06T04:50:11;2.95;;;1.30;;
68140;SDS011;54941;52.220;104.306;2024-01-06T04:52:38;2.80;;;1.42;;
68140;SDS011;54941;52.220;104.306;2024-01-06T04:55:04;2.95;;;1.15;;
68140;SDS011;54941;52.220;104.306;2024-01-06T04:57:32;3.53;;;1.70;;
68140;SDS011;54941;52.220;104.306;2024-01-06T04:59:59;2.80;;;1.02;;
68140;SDS011;54941;52.220;104.306;2024-01-06T05:02:25;3.10;;;1.92;;
68140;SDS011;54941;52.220;104.306;2024-01-06T05:04:51;3.35;;;2.15;;
68140;SDS011;54941;52.220;104.306;2024-01-06T05:07:18;2.83;;;1.17;;
68140;SDS011;54941;52.220;104.306;2024-01-06T05:09:44;2.53;;;0.82;;
68140;SDS011;54941;52.220;104.306;2024-01-06T05:12:10;3.55;;;1.10;;
68140;SDS011;54941;52.220;104.306;2024-01-06T05:14:38;2.60;;;1.23;;
68140;SDS011;54941;52.220;104.306;2024-01-06T05:17:05;4.03;;;1.58;;
68140;SDS011;54941;52.220;104.306;2024-01-06T05:19:31;4.90;;;1.90;;
68140;SDS011;54941;52.220;104.306;2024-01-06T05:21:58;3.38;;;1.67;;
68140;SDS011;54941;52.220;104.306;2024-01-06T05:24:24;3.10;;;1.27;;
68140;SDS011;54941;52.220;104.306;2024-01-06T05:26:51;3.58;;;1.38;;
68140;SDS011;54941;52.220;104.306;2024-01-06T05:29:17;3.28;;;1.40;;
68140;SDS011;54941;52.220;104.306;2024-01-06T05:31:45;2.95;;;1.52;;
68140;SDS011;54941;52.220;104.306;2024-01-06T05:34:11;4.03;;;1.30;;
68140;SDS011;54941;52.220;104.306;2024-01-06T05:36:38;2.65;;;1.17;;
68140;SDS011;54941;52.220;104.306;2024-01-06T05:39:04;4.35;;;1.50;;
68140;SDS011;54941;52.220;104.306;2024-01-06T05:41:36;3.97;;;1.50;;
68140;SDS011;54941;52.220;104.306;2024-01-06T05:44:03;3.05;;;1.40;;
68140;SDS011;54941;52.220;104.306;2024-01-06T05:46:30;6.25;;;1.77;;
68140;SDS011;54941;52.220;104.306;2024-01-06T05:48:58;6.30;;;1.80;;
68140;SDS011;54941;52.220;104.306;2024-01-06T05:51:24;3.70;;;1.70;;
68140;SDS011;54941;52.220;104.306;2024-01-06T05:53:50;3.17;;;1.42;;
68140;SDS011;54941;52.220;104.306;2024-01-06T05:56:23;4.25;;;1.63;;
68140;SDS011;54941;52.220;104.306;2024-01-06T05:58:49;3.38;;;1.42;;
68140;SDS011;54941;52.220;104.306;2024-01-06T06:01:16;3.58;;;1.13;;
68140;SDS011;54941;52.220;104.306;2024-01-06T06:03:42;2.67;;;1.20;;
68140;SDS011;54941;52.220;104.306;2024-01-06T06:06:10;2.33;;;1.17;;
68140;SDS011;54941;52.220;104.306;2024-01-06T06:08:36;2.42;;;1.40;;
68140;SDS011;54941;52.220;104.306;2024-01-06T06:11:02;3.33;;;1.20;;
68140;SDS011;54941;52.220;104.306;2024-01-06T06:13:29;2.05;;;0.90;;
68140;SDS011;54941;52.220;104.306;2024-01-06T06:15:55;3.03;;;0.98;;
68140;SDS011;54941;52.220;104.306;2024-01-06T06:18:21;2.75;;;0.93;;
68140;SDS011;54941;52.220;104.306;2024-01-06T06:20:48;3.58;;;1.08;;
68140;SDS011;54941;52.220;104.306;2024-01-06T06:23:16;3.03;;;1.40;;
68140;SDS011;54941;52.220;104.306;2024-01-06T06:25:42;2.13;;;0.80;;
68140;SDS011;54941;52.220;104.306;2024-01-06T06:28:08;3.30;;;1.67;;
68140;SDS011;54941;52.220;104.306;2024-01-06T06:30:35;3.08;;;1.33;;
68140;SDS011;54941;52.220;104.306;2024-01-06T06:33:01;2.42;;;1.25;;
68140;SDS011;54941;52.220;104.306;2024-01-06T06:35:27;1.73;;;0.70;;
68140;SDS011;54941;52.220;104.306;2024-01-06T06:37:54;1.85;;;0.93;;
68140;SDS011;54941;52.220;104.306;2024-01-06T06:40:21;2.38;;;1.00;;
68140;SDS011;54941;52.220;104.306;2024-01-06T06:42:48;2.60;;;1.30;;
68140;SDS011;54941;52.220;104.306;2024-01-06T06:45:14;3.13;;;1.58;;
68140;SDS011;54941;52.220;104.306;2024-01-06T06:47:41;3.08;;;1.63;;
68140;SDS011;54941;52.220;104.306;2024-01-06T06:50:07;2.90;;;1.20;;
68140;SDS011;54941;52.220;104.306;2024-01-06T06:52:34;2.70;;;1.17;;
68140;SDS011;54941;52.220;104.306;2024-01-06T06:55:00;2.95;;;1.23;;
68140;SDS011;54941;52.220;104.306;2024-01-06T06:57:28;2.38;;;0.93;;
68140;SDS011;54941;52.220;104.306;2024-01-06T06:59:54;4.25;;;1.23;;
68140;SDS011;54941;52.220;104.306;2024-01-06T07:02:20;2.88;;;1.00;;
68140;SDS011;54941;52.220;104.306;2024-01-06T07:04:46;4.60;;;1.45;;
68140;SDS011;54941;52.220;104.306;2024-01-06T07:07:13;2.25;;;1.20;;
68140;SDS011;54941;52.220;104.306;2024-01-06T07:09:40;1.88;;;0.82;;
68140;SDS011;54941;52.220;104.306;2024-01-06T07:12:06;2.15;;;1.35;;
68140;SDS011;54941;52.220;104.306;2024-01-06T07:14:34;3.08;;;1.48;;
68140;SDS011;54941;52.220;104.306;2024-01-06T07:17:01;2.13;;;1.13;;
68140;SDS011;54941;52.220;104.306;2024-01-06T07:19:27;2.25;;;1.50;;
68140;SDS011;54941;52.220;104.306;2024-01-06T07:21:53;2.30;;;1.33;;
68140;SDS011;54941;52.220;104.306;2024-01-06T07:24:19;3.15;;;1.20;;
68140;SDS011;54941;52.220;104.306;2024-01-06T07:26:46;2.33;;;0.82;;
68140;SDS011;54941;52.220;104.306;2024-01-06T07:29:12;2.67;;;0.93;;
68140;SDS011;54941;52.220;104.306;2024-01-06T07:31:40;2.65;;;1.30;;
68140;SDS011;54941;52.220;104.306;2024-01-06T07:34:06;2.00;;;0.90;;
68140;SDS011;54941;52.220;104.306;2024-01-06T07:36:32;3.25;;;1.13;;
68140;SDS011;54941;52.220;104.306;2024-01-06T07:38:59;2.47;;;1.00;;
68140;SDS011;54941;52.220;104.306;2024-01-06T07:41:28;4.40;;;1.65;;
68140;SDS011;54941;52.220;104.306;2024-01-06T07:43:54;4.93;;;1.60;;
68140;SDS011;54941;52.220;104.306;2024-01-06T07:46:21;3.42;;;1.35;;
68140;SDS011;54941;52.220;104.306;2024-01-06T07:48:49;2.80;;;1.83;;
68140;SDS011;54941;52.220;104.306;2024-01-06T07:51:15;3.70;;;1.58;;
68140;SDS011;54941;52.220;104.306;2024-01-06T07:53:41;2.53;;;1.00;;
68140;SDS011;54941;52.220;104.306;2024-01-06T07:56:07;2.50;;;0.75;;
68140;SDS011;54941;52.220;104.306;2024-01-06T07:58:34;3.00;;;1.33;;
68140;SDS011;54941;52.220;104.306;2024-01-06T08:01:00;2.50;;;1.42;;
68140;SDS011;54941;52.220;104.306;2024-01-06T08:03:26;2.45;;;1.48;;
68140;SDS011;54941;52.220;104.306;2024-01-06T08:05:54;2.50;;;1.17;;
68140;SDS011;54941;52.220;104.306;2024-01-06T08:08:20;2.08;;;0.95;;
68140;SDS011;54941;52.220;104.306;2024-01-06T08:10:46;3.83;;;1.50;;
68140;SDS011;54941;52.220;104.306;2024-01-06T08:13:13;4.03;;;1.50;;
68140;SDS011;54941;52.220;104.306;2024-01-06T08:15:39;4.30;;;1.45;;
68140;SDS011;54941;52.220;104.306;2024-01-06T08:18:05;3.95;;;1.27;;
68140;SDS011;54941;52.220;104.306;2024-01-06T08:20:32;5.63;;;1.45;;
68140;SDS011;54941;52.220;104.306;2024-01-06T08:22:59;2.53;;;1.13;;
68140;SDS011;54941;52.220;104.306;2024-01-06T08:25:26;2.72;;;1.23;;
68140;SDS011;54941;52.220;104.306;2024-01-06T08:27:52;4.15;;;1.23;;
68140;SDS011;54941;52.220;104.306;2024-01-06T08:30:18;2.38;;;1.30;;
68140;SDS011;54941;52.220;104.306;2024-01-06T08:32:45;4.05;;;1.90;;
68140;SDS011;54941;52.220;104.306;2024-01-06T08:35:11;4.55;;;2.15;;
68140;SDS011;54941;52.220;104.306;2024-01-06T08:37:37;3.53;;;1.40;;
68140;SDS011;54941;52.220;104.306;2024-01-06T08:40:06;6.00;;;2.78;;
68140;SDS011;54941;52.220;104.306;2024-01-06T08:42:33;2.53;;;1.00;;
68140;SDS011;54941;52.220;104.306;2024-01-06T08:45:00;2.72;;;1.33;;
68140;SDS011;54941;52.220;104.306;2024-01-06T08:47:26;2.85;;;1.00;;
68140;SDS011;54941;52.220;104.306;2024-01-06T08:49:52;3.25;;;0.93;;
68140;SDS011;54941;52.220;104.306;2024-01-06T08:52:19;3.65;;;1.50;;
68140;SDS011;54941;52.220;104.306;2024-01-06T08:54:45;2.20;;;1.13;;
68140;SDS011;54941;52.220;104.306;2024-01-06T08:57:12;2.05;;;1.60;;
68140;SDS011;54941;52.220;104.306;2024-01-06T08:59:39;2.38;;;0.80;;
68140;SDS011;54941;52.220;104.306;2024-01-06T09:02:05;2.85;;;1.40;;
68140;SDS011;54941;52.220;104.306;2024-01-06T09:04:31;3.40;;;1.30;;
68140;SDS011;54941;52.220;104.306;2024-01-06T09:06:58;3.40;;;1.25;;
68140;SDS011;54941;52.220;104.306;2024-01-06T09:09:24;3.42;;;1.80;;
68140;SDS011;54941;52.220;104.306;2024-01-06T09:11:50;2.88;;;1.42;;
68140;SDS011;54941;52.220;104.306;2024-01-06T09:14:18;3.20;;;1.30;;
68140;SDS011;54941;52.220;104.306;2024-01-06T09:16:44;4.70;;;1.77;;
68140;SDS011;54941;52.220;104.306;2024-01-06T09:19:10;3.83;;;1.55;;
68140;SDS011;54941;52.220;104.306;2024-01-06T09:21:37;3.63;;;1.38;;
68140;SDS011;54941;52.220;104.306;2024-01-06T09:24:03;3.70;;;2.10;;
68140;SDS011;54941;52.220;104.306;2024-01-06T09:26:29;3.67;;;1.60;;
68140;SDS011;54941;52.220;104.306;2024-01-06T09:28:56;2.85;;;0.98;;
68140;SDS011;54941;52.220;104.306;2024-01-06T09:31:23;3.55;;;1.30;;
68140;SDS011;54941;52.220;104.306;2024-01-06T09:33:50;3.97;;;1.40;;
68140;SDS011;54941;52.220;104.306;2024-01-06T09:36:16;3.45;;;1.05;;
68140;SDS011;54941;52.220;104.306;2024-01-06T09:38:42;3.03;;;1.98;;
68140;SDS011;54941;52.220;104.306;2024-01-06T09:41:09;2.78;;;1.13;;
68140;SDS011;54941;52.220;104.306;2024-01-06T09:43:37;2.22;;;1.00;;
68140;SDS011;54941;52.220;104.306;2024-01-06T09:46:05;2.33;;;1.08;;
68140;SDS011;54941;52.220;104.306;2024-01-06T09:48:39;2.90;;;0.98;;
68140;SDS011;54941;52.220;104.306;2024-01-06T09:51:06;2.67;;;1.10;;
68140;SDS011;54941;52.220;104.306;2024-01-06T09:53:36;3.40;;;1.25;;
68140;SDS011;54941;52.220;104.306;2024-01-06T09:56:14;3.92;;;1.90;;
68140;SDS011;54941;52.220;104.306;2024-01-06T09:58:42;3.25;;;1.45;;
68140;SDS011;54941;52.220;104.306;2024-01-06T10:01:09;7.97;;;2.65;;
68140;SDS011;54941;52.220;104.306;2024-01-06T10:03:38;5.65;;;2.20;;
68140;SDS011;54941;52.220;104.306;2024-01-06T10:06:04;6.47;;;2.60;;
68140;SDS011;54941;52.220;104.306;2024-01-06T10:08:31;5.25;;;2.10;;
68140;SDS011;54941;52.220;104.306;2024-01-06T10:11:00;5.45;;;2.20;;
68140;SDS011;54941;52.220;104.306;2024-01-06T10:13:27;6.25;;;2.22;;
68140;SDS011;54941;52.220;104.306;2024-01-06T10:15:54;5.68;;;2.38;;
68140;SDS011;54941;52.220;104.306;2024-01-06T10:18:20;4.70;;;1.88;;
68140;SDS011;54941;52.220;104.306;2024-01-06T10:20:48;2.47;;;1.02;;
68140;SDS011;54941;52.220;104.306;2024-01-06T10:23:16;2.60;;;1.38;;
68140;SDS011;54941;52.220;104.306;2024-01-06T10:25:42;3.20;;;1.83;;
68140;SDS011;54941;52.220;104.306;2024-01-06T10:28:11;3.42;;;1.65;;
68140;SDS011;54941;52.220;104.306;2024-01-06T10:30:37;3.85;;;1.60;;
68140;SDS011;54941;52.220;104.306;2024-01-06T10:33:07;5.07;;;1.58;;
68140;SDS011;54941;52.220;104.306;2024-01-06T10:35:34;4.47;;;1.70;;
68140;SDS011;54941;52.220;104.306;2024-01-06T10:38:02;5.43;;;1.98;;
68140;SDS011;54941;52.220;104.306;2024-01-06T10:40:29;7.18;;;2.22;;
68140;SDS011;54941;52.220;104.306;2024-01-06T10:42:55;4.97;;;2.33;;
68140;SDS011;54941;52.220;104.306;2024-01-06T10:45:21;4.00;;;2.05;;
68140;SDS011;54941;52.220;104.306;2024-01-06T10:47:48;3.40;;;2.03;;
68140;SDS011;54941;52.220;104.306;2024-01-06T10:50:15;3.15;;;1.40;;
68140;SDS011;54941;52.220;104.306;2024-01-06T10:52:43;4.05;;;1.70;;
68140;SDS011;54941;52.220;104.306;2024-01-06T10:55:13;3.83;;;1.80;;
68140;SDS011;54941;52.220;104.306;2024-01-06T10:57:41;2.92;;;1.60;;
68140;SDS011;54941;52.220;104.306;2024-01-06T11:00:09;4.15;;;1.77;;
68140;SDS011;54941;52.220;104.306;2024-01-06T11:02:36;3.92;;;1.70;;
68140;SDS011;54941;52.220;104.306;2024-01-06T11:05:04;4.40;;;1.88;;
68140;SDS011;54941;52.220;104.306;2024-01-06T11:07:30;5.82;;;3.08;;
68140;SDS011;54941;52.220;104.306;2024-01-06T11:09:58;4.30;;;2.47;;
68140;SDS011;54941;52.220;104.306;2024-01-06T11:12:31;3.97;;;2.30;;
68140;SDS011;54941;52.220;104.306;2024-01-06T11:15:00;4.05;;;2.33;;
68140;SDS011;54941;52.220;104.306;2024-01-06T11:20:18;9.40;;;3.60;;
68140;SDS011;54941;52.220;104.306;2024-01-06T11:22:44;5.93;;;2.63;;
68140;SDS011;54941;52.220;104.306;2024-01-06T11:25:13;7.30;;;2.88;;
68140;SDS011;54941;52.220;104.306;2024-01-06T11:27:42;4.65;;;2.17;;
68140;SDS011;54941;52.220;104.306;2024-01-06T11:30:11;7.18;;;2.47;;
68140;SDS011;54941;52.220;104.306;2024-01-06T11:32:45;6.22;;;2.80;;
68140;SDS011;54941;52.220;104.306;2024-01-06T11:35:12;6.75;;;3.42;;
68140;SDS011;54941;52.220;104.306;2024-01-06T11:37:50;5.80;;;2.60;;
68140;SDS011;54941;52.220;104.306;2024-01-06T11:40:22;5.45;;;2.47;;
68140;SDS011;54941;52.220;104.306;2024-01-06T11:42:58;5.13;;;2.58;;
68140;SDS011;54941;52.220;104.306;2024-01-06T11:45:26;8.07;;;3.67;;
68140;SDS011;54941;52.220;104.306;2024-01-06T11:47:54;5.78;;;3.10;;
68140;SDS011;54941;52.220;104.306;2024-01-06T11:50:35;8.20;;;3.40;;
68140;SDS011;54941;52.220;104.306;2024-01-06T11:53:03;7.70;;;3.70;;
68140;SDS011;54941;52.220;104.306;2024-01-06T11:55:32;5.30;;;3.13;;
68140;SDS011;54941;52.220;104.306;2024-01-06T11:58:00;6.57;;;3.45;;
68140;SDS011;54941;52.220;104.306;2024-01-06T12:00:27;6.20;;;3.15;;
68140;SDS011;54941;52.220;104.306;2024-01-06T12:02:55;5.22;;;3.05;;
68140;SDS011;54941;52.220;104.306;2024-01-06T12:05:30;6.45;;;3.00;;
68140;SDS011;54941;52.220;104.306;2024-01-06T12:07:57;6.25;;;2.45;;
68140;SDS011;54941;52.220;104.306;2024-01-06T12:10:25;5.25;;;2.92;;
68140;SDS011;54941;52.220;104.306;2024-01-06T12:12:56;6.25;;;2.97;;
68140;SDS011;54941;52.220;104.306;2024-01-06T12:15:25;5.47;;;2.40;;
68140;SDS011;54941;52.220;104.306;2024-01-06T12:17:51;4.63;;;2.97;;
68140;SDS011;54941;52.220;104.306;2024-01-06T12:20:17;5.07;;;3.20;;
68140;SDS011;54941;52.220;104.306;2024-01-06T12:22:44;5.30;;;2.22;;
68140;SDS011;54941;52.220;104.306;2024-01-06T12:25:10;5.53;;;3.30;;
68140;SDS011;54941;52.220;104.306;2024-01-06T12:27:41;7.10;;;2.58;;
68140;SDS011;54941;52.220;104.306;2024-01-06T12:30:11;5.65;;;2.40;;
68140;SDS011;54941;52.220;104.306;2024-01-06T12:37:55;7.63;;;3.25;;
68140;SDS011;54941;52.220;104.306;2024-01-06T12:40:21;7.60;;;2.78;;
68140;SDS011;54941;52.220;104.306;2024-01-06T12:42:47;5.90;;;2.88;;
68140;SDS011;54941;52.220;104.306;2024-01-06T12:45:14;4.55;;;2.10;;
68140;SDS011;54941;52.220;104.306;2024-01-06T12:47:40;5.57;;;2.45;;
68140;SDS011;54941;52.220;104.306;2024-01-06T12:50:09;6.00;;;2.35;;
68140;SDS011;54941;52.220;104.306;2024-01-06T12:52:35;7.97;;;3.35;;
68140;SDS011;54941;52.220;104.306;2024-01-06T12:55:02;8.38;;;3.75;;
68140;SDS011;54941;52.220;104.306;2024-01-06T12:57:30;6.70;;;2.42;;
68140;SDS011;54941;52.220;104.306;2024-01-06T12:59:56;5.55;;;2.38;;
68140;SDS011;54941;52.220;104.306;2024-01-06T13:02:23;5.38;;;2.83;;
68140;SDS011;54941;52.220;104.306;2024-01-06T13:04:49;5.63;;;2.03;;
68140;SDS011;54941;52.220;104.306;2024-01-06T13:07:17;7.47;;;3.92;;
68140;SDS011;54941;52.220;104.306;2024-01-06T13:09:43;9.20;;;3.67;;
68140;SDS011;54941;52.220;104.306;2024-01-06T13:12:10;7.15;;;2.97;;
68140;SDS011;54941;52.220;104.306;2024-01-06T13:14:36;6.57;;;3.03;;
68140;SDS011;54941;52.220;104.306;2024-01-06T13:17:03;9.10;;;3.63;;
68140;SDS011;54941;52.220;104.306;2024-01-06T13:19:29;8.60;;;3.45;;
68140;SDS011;54941;52.220;104.306;2024-01-06T13:21:56;4.28;;;2.35;;
68140;SDS011;54941;52.220;104.306;2024-01-06T13:24:23;7.90;;;2.40;;
68140;SDS011;54941;52.220;104.306;2024-01-06T13:26:50;11.88;;;4.85;;
68140;SDS011;54941;52.220;104.306;2024-01-06T13:29:16;8.00;;;3.40;;
68140;SDS011;54941;52.220;104.306;2024-01-06T13:31:42;10.30;;;4.05;;
68140;SDS011;54941;52.220;104.306;2024-01-06T13:34:09;8.48;;;3.83;;
68140;SDS011;54941;52.220;104.306;2024-01-06T13:36:37;5.18;;;2.35;;
68140;SDS011;54941;52.220;104.306;2024-01-06T13:39:06;7.20;;;2.70;;
68140;SDS011;54941;52.220;104.306;2024-01-06T13:41:34;5.30;;;2.25;;
68140;SDS011;54941;52.220;104.306;2024-01-06T13:44:06;6.03;;;2.30;;
68140;SDS011;54941;52.220;104.306;2024-01-06T13:46:32;5.05;;;2.10;;
68140;SDS011;54941;52.220;104.306;2024-01-06T13:48:59;6.03;;;2.25;;
68140;SDS011;54941;52.220;104.306;2024-01-06T13:51:25;8.38;;;2.22;;
68140;SDS011;54941;52.220;104.306;2024-01-06T13:53:51;5.03;;;2.38;;
68140;SDS011;54941;52.220;104.306;2024-01-06T13:56:23;4.53;;;2.38;;
68140;SDS011;54941;52.220;104.306;2024-01-06T13:59:00;5.68;;;2.28;;
68140;SDS011;54941;52.220;104.306;2024-01-06T14:01:27;4.05;;;2.20;;
68140;SDS011;54941;52.220;104.306;2024-01-06T14:03:54;5.32;;;2.25;;
68140;SDS011;54941;52.220;104.306;2024-01-06T14:06:20;4.95;;;1.80;;
68140;SDS011;54941;52.220;104.306;2024-01-06T14:08:47;4.82;;;1.80;;
68140;SDS011;54941;52.220;104.306;2024-01-06T14:11:13;4.50;;;2.85;;
68140;SDS011;54941;52.220;104.306;2024-01-06T14:13:39;3.90;;;1.98;;
68140;SDS011;54941;52.220;104.306;2024-01-06T14:16:10;4.90;;;2.08;;
68140;SDS011;54941;52.220;104.306;2024-01-06T14:18:36;4.85;;;1.95;;
68140;SDS011;54941;52.220;104.306;2024-01-06T14:21:03;3.42;;;1.83;;
68140;SDS011;54941;52.220;104.306;2024-01-06T14:23:29;5.55;;;2.30;;
68140;SDS011;54941;52.220;104.306;2024-01-06T14:25:55;5.00;;;2.08;;
68140;SDS011;54941;52.220;104.306;2024-01-06T14:28:21;6.32;;;1.63;;